Airfield :
LOGIN :

Register | Disclaimer

   EN    FR    IT 

 










Legend :    VFR   Marginal VFR   IFR   Intensive IFR   Very Intensive IFR
Visi :
Ceiling :
>= 8 km
>= 3000ft
5 to 8 km
1000 to 3000 ft
1500m to 5 km
500 to 1000 ft
800 to 1500m
200 to 500 ft
< 800m
< 200 ft
Symbols :   Thunderstorms  Fog  Heavy snow  Heavy precipitations  Wind > 20 kt
SIGMETs :     Misc.  Thunderstorms  Icing  Turbulence  Mountain Waves  Volcanic Ashes







- Airport Elevation : 163 ft
- IATA code : DGX


EGDX - St Athan

CURRENT METAR :
  • 151250Z 05015KT 9999 FEW012 BKN020 12/09 Q1012 WHT

EXPIRED METARs :
  • 151150Z 05016KT 9999 FEW020 BKN032 12/09 Q1011 BLU
  • 151050Z 05012KT 9999 FEW010 BKN032 12/10 Q1011 BLU

TAF TAF EGDX
Valid from the 15 at 12:00 until the 15 at 18:00 UTC


151017Z 1512/1518 05010KT 9999 BKN025
PROB30
TEMPO 1512/1518 6000 -RADZ BKN012
No reported NOTAMs for that airfield.
1 SIGMET reported for the London FIR (EGTT) :
 
Severe turbulence
EGTT SIGMET 04 VALID 151149/151530 EGRR
EGTT LONDON FIR SEV TURB FCST W OF LINE N5500 W00332 - N4957 W00215 FL240/350 MOV E 20KT WKN=



MET'MAP, your aeronautical weather chart ! - Copyright ORBIFLY December 2007 - Disclaimer

ORBIFLY MET'MAP TEAM :

Programming & Development : Alexandra Zaïnal
Concept & Development : Baudouin d'Aumeries
Co-Development & Prog : Marc-Olivier Méhu
Technical & hardware support : Manuel Goepfert

Contact : metmap@orbifly.com




SOURCES & CREDITS :

   NOAA